Time;durP1;ratioP1;P1;durP2;ratioP2;P2;SDS_P1;SDS_P2;PMS_P1;PMS_P2;Temp;Humidity;BMP_temperature;BMP_pressure;BME280_temperature;BME280_humidity;BME280_pressure;Samples;Min_cycle;Max_cycle;Signal;HPM_P1;HPM_P2
2022/12/10 00:01:37;;;;;;;34.35;19.98;;;;;;;;;;4986540;28;20046;-78
2022/12/10 00:04:03;;;;;;;36.83;19.60;;;;;;;;;;4984644;28;20417;-79
2022/12/10 00:06:31;;;;;;;32.28;19.50;;;;;;;;;;4982111;28;20031;-80
2022/12/10 00:08:58;;;;;;;41.53;20.60;;;;;;;;;;4985942;28;20061;-79
2022/12/10 00:11:24;;;;;;;34.13;19.42;;;;;;;;;;4983011;28;20042;-78
2022/12/10 00:13:51;;;;;;;36.25;18.75;;;;;;;;;;4986695;28;20289;-79
2022/12/10 00:16:18;;;;;;;35.53;19.70;;;;;;;;;;4984375;28;20489;-80
2022/12/10 00:18:44;;;;;;;33.70;18.63;;;;;;;;;;4986207;28;20057;-78
2022/12/10 00:21:12;;;;;;;40.15;19.92;;;;;;;;;;4988176;28;20484;-77
2022/12/10 00:23:39;;;;;;;36.80;19.30;;;;;;;;;;4985745;28;20544;-79
2022/12/10 00:26:06;;;;;;;35.70;19.65;;;;;;;;;;4985999;28;20103;-78
2022/12/10 00:28:32;;;;;;;40.17;19.92;;;;;;;;;;4989606;28;20037;-80
2022/12/10 00:31:06;;;;;;;35.72;19.52;;;;;;;;;;4989287;28;20050;-78
2022/12/10 00:33:32;;;;;;;37.42;20.60;;;;;;;;;;4979257;28;20026;-81
2022/12/10 00:36:08;;;;;;;36.30;19.70;;;;;;;;;;4991936;28;20041;-80
2022/12/10 00:38:34;;;;;;;36.30;19.83;;;;;;;;;;4988797;28;20067;-80
2022/12/10 00:41:00;;;;;;;38.55;20.35;;;;;;;;;;4989000;28;20065;-78
2022/12/10 00:43:26;;;;;;;37.90;21.73;;;;;;;;;;4990542;28;20037;-80
2022/12/10 00:45:53;;;;;;;49.88;21.27;;;;;;;;;;4990007;28;20030;-79
2022/12/10 00:48:18;;;;;;;43.13;21.25;;;;;;;;;;4989776;28;20095;-80
2022/12/10 00:50:44;;;;;;;49.42;23.38;;;;;;;;;;4986215;28;20129;-77
2022/12/10 00:53:09;;;;;;;43.80;21.80;;;;;;;;;;4989786;28;20447;-79
2022/12/10 00:55:35;;;;;;;39.60;20.58;;;;;;;;;;4990534;28;20506;-78
2022/12/10 00:58:01;;;;;;;41.33;21.73;;;;;;;;;;4990104;28;20061;-80
2022/12/10 01:00:26;;;;;;;41.65;21.35;;;;;;;;;;4990994;28;20063;-79
2022/12/10 01:02:52;;;;;;;37.80;20.98;;;;;;;;;;4989758;28;20031;-80
2022/12/10 01:05:18;;;;;;;40.35;20.83;;;;;;;;;;4990343;28;20498;-82
2022/12/10 01:07:44;;;;;;;40.35;21.17;;;;;;;;;;4973154;28;20042;-78
2022/12/10 01:10:09;;;;;;;36.13;20.88;;;;;;;;;;4989618;28;20038;-78
2022/12/10 01:12:35;;;;;;;32.88;20.05;;;;;;;;;;4989358;28;20490;-80
2022/12/10 01:15:00;;;;;;;37.80;20.80;;;;;;;;;;4992206;28;20042;-78
2022/12/10 01:17:26;;;;;;;38.10;20.23;;;;;;;;;;4989285;28;20109;-79
2022/12/10 01:19:52;;;;;;;35.38;20.85;;;;;;;;;;4991048;28;20125;-78
2022/12/10 01:22:18;;;;;;;44.80;22.48;;;;;;;;;;4987749;28;20026;-80
2022/12/10 01:24:44;;;;;;;40.20;20.95;;;;;;;;;;4987776;28;20038;-78
2022/12/10 01:27:12;;;;;;;36.45;19.90;;;;;;;;;;4986136;28;20034;-77
2022/12/10 01:29:37;;;;;;;40.40;20.98;;;;;;;;;;4990891;28;20100;-82
2022/12/10 01:32:03;;;;;;;39.17;20.80;;;;;;;;;;4971165;28;20031;-80
2022/12/10 01:34:29;;;;;;;42.72;21.13;;;;;;;;;;4989719;28;20550;-79
2022/12/10 01:36:55;;;;;;;39.53;21.95;;;;;;;;;;4987603;28;20398;-80
2022/12/10 01:39:22;;;;;;;39.92;20.45;;;;;;;;;;4988661;28;20026;-79
2022/12/10 01:41:52;;;;;;;36.72;21.50;;;;;;;;;;4988076;28;20031;-81
2022/12/10 01:44:17;;;;;;;38.92;20.58;;;;;;;;;;4985135;28;20034;-80
2022/12/10 01:46:45;;;;;;;43.45;21.67;;;;;;;;;;4989948;28;20037;-78
2022/12/10 01:49:16;;;;;;;36.78;20.27;;;;;;;;;;4990083;28;20620;-78
2022/12/10 01:51:45;;;;;;;40.70;21.13;;;;;;;;;;4989451;28;20490;-78
2022/12/10 01:54:14;;;;;;;32.80;19.73;;;;;;;;;;4990770;28;20042;-80
2022/12/10 01:56:46;;;;;;;39.63;22.63;;;;;;;;;;4988564;28;20031;-79
2022/12/10 01:59:13;;;;;;;39.70;23.17;;;;;;;;;;4987513;28;20030;-78
2022/12/10 02:01:56;;;;;;;44.08;21.13;;;;;;;;;;4989259;28;20034;-80
2022/12/10 02:04:36;;;;;;;38.67;20.88;;;;;;;;;;4988272;28;20098;-79
2022/12/10 02:07:23;;;;;;;45.15;22.98;;;;;;;;;;4988252;28;20077;-80
2022/12/10 02:10:07;;;;;;;46.70;23.45;;;;;;;;;;4984019;28;20034;-80
2022/12/10 02:12:49;;;;;;;43.00;21.75;;;;;;;;;;4970544;28;20552;-81
2022/12/10 02:15:27;;;;;;;37.83;21.13;;;;;;;;;;4988501;28;20034;-77
2022/12/10 02:18:01;;;;;;;44.25;21.70;;;;;;;;;;4987978;28;20048;-79
2022/12/10 02:20:36;;;;;;;39.78;20.73;;;;;;;;;;4989411;28;20111;-78
2022/12/10 02:23:12;;;;;;;37.90;21.58;;;;;;;;;;4989930;28;20035;-78
2022/12/10 02:25:40;;;;;;;38.22;21.58;;;;;;;;;;4988691;28;20050;-81
2022/12/10 02:28:38;;;;;;;39.13;20.63;;;;;;;;;;4986601;28;20088;-78
2022/12/10 02:31:09;;;;;;;40.25;21.20;;;;;;;;;;4981132;28;20074;-80
2022/12/10 02:33:40;;;;;;;38.33;20.30;;;;;;;;;;4989937;28;20038;-79
2022/12/10 02:36:08;;;;;;;39.58;21.13;;;;;;;;;;4987913;28;20034;-82
2022/12/10 02:38:38;;;;;;;39.03;20.70;;;;;;;;;;4985040;28;20490;-79
2022/12/10 02:41:07;;;;;;;42.97;21.40;;;;;;;;;;4990266;28;20073;-80
2022/12/10 02:43:34;;;;;;;;;;;;;;;;;;4983401;28;20030;-77
2022/12/10 02:46:03;;;;;;;32.92;18.52;;;;;;;;;;4971432;28;20381;-80
2022/12/10 02:48:31;;;;;;;33.05;19.13;;;;;;;;;;4985638;28;20057;-78
2022/12/10 02:50:57;;;;;;;33.67;19.70;;;;;;;;;;4985266;28;20172;-78
2022/12/10 02:53:22;;;;;;;32.92;18.42;;;;;;;;;;4998072;28;20093;-81
2022/12/10 02:56:12;;;;;;;36.22;19.10;;;;;;;;;;4990145;28;20050;-79
2022/12/10 02:59:21;;;;;;;35.38;19.23;;;;;;;;;;4991268;28;20038;-79
2022/12/10 03:02:00;;;;;;;36.67;20.67;;;;;;;;;;5016402;28;20038;-78
2022/12/10 03:04:38;;;;;;;35.80;19.58;;;;;;;;;;5000964;28;20049;-78
2022/12/10 03:07:10;;;;;;;32.47;18.30;;;;;;;;;;4993142;28;20042;-81
2022/12/10 03:09:51;;;;;;;27.67;17.50;;;;;;;;;;4992438;28;20476;-81
2022/12/10 03:12:28;;;;;;;37.95;20.83;;;;;;;;;;4989968;28;20074;-81
2022/12/10 03:15:02;;;;;;;34.05;18.42;;;;;;;;;;4990925;28;20518;-81
2022/12/10 03:17:30;;;;;;;30.55;17.83;;;;;;;;;;4992802;28;20030;-83
2022/12/10 03:19:58;;;;;;;38.80;19.42;;;;;;;;;;4985972;28;20529;-82
2022/12/10 03:22:24;;;;;;;32.25;18.25;;;;;;;;;;4991429;28;20049;-82
2022/12/10 03:24:51;;;;;;;32.75;18.40;;;;;;;;;;4991978;28;20030;-82
2022/12/10 03:27:20;;;;;;;29.75;18.02;;;;;;;;;;4982140;28;20168;-81
2022/12/10 03:29:50;;;;;;;;;;;;;;;;;;4989135;28;20039;-82
2022/12/10 03:32:19;;;;;;;35.55;17.42;;;;;;;;;;4991242;28;19949;-81
2022/12/10 03:34:45;;;;;;;23.77;15.93;;;;;;;;;;4990014;28;20176;-81
2022/12/10 03:37:12;;;;;;;28.55;17.95;;;;;;;;;;4987070;28;20563;-80
2022/12/10 03:39:40;;;;;;;44.72;18.85;;;;;;;;;;4988761;28;20034;-79
2022/12/10 03:42:06;;;;;;;29.88;17.17;;;;;;;;;;4989274;28;20034;-79
2022/12/10 03:44:35;;;;;;;36.55;17.88;;;;;;;;;;4989880;28;20045;-80
2022/12/10 03:47:02;;;;;;;31.13;17.77;;;;;;;;;;4988828;28;20030;-81
2022/12/10 03:49:28;;;;;;;32.90;18.17;;;;;;;;;;4987577;28;20116;-77
2022/12/10 03:51:54;;;;;;;26.92;16.58;;;;;;;;;;4992053;28;20023;-80
2022/12/10 03:54:20;;;;;;;30.60;17.25;;;;;;;;;;4991054;28;20065;-77
2022/12/10 03:56:45;;;;;;;29.23;17.90;;;;;;;;;;4987292;28;20026;-82
2022/12/10 03:59:11;;;;;;;31.88;16.92;;;;;;;;;;4972042;28;20038;-79
2022/12/10 04:01:37;;;;;;;26.65;16.33;;;;;;;;;;4992366;28;20085;-80
2022/12/10 04:04:04;;;;;;;26.25;17.45;;;;;;;;;;4992138;28;20034;-78
2022/12/10 04:06:29;;;;;;;31.58;17.52;;;;;;;;;;4990412;28;20134;-80
2022/12/10 04:08:55;;;;;;;34.55;18.65;;;;;;;;;;4994261;28;20062;-78
2022/12/10 04:11:21;;;;;;;33.95;18.42;;;;;;;;;;4991977;28;20042;-80
2022/12/10 04:16:33;;;;;;;35.03;19.95;;;;;;;;;;4993272;28;20042;-81
2022/12/10 04:19:06;;;;;;;32.25;19.60;;;;;;;;;;4992298;28;20030;-79
2022/12/10 04:27:09;;;;;;;39.67;19.10;;;;;;;;;;4992250;28;20042;-78
2022/12/10 04:29:34;;;;;;;;;;;;;;;;;;4994268;28;20033;-80
2022/12/10 04:32:00;;;;;;;31.42;18.60;;;;;;;;;;4994315;28;20334;-80
2022/12/10 04:34:26;;;;;;;39.05;19.73;;;;;;;;;;4992511;28;20040;-78
2022/12/10 04:36:52;;;;;;;31.77;18.45;;;;;;;;;;4990829;28;20390;-80
2022/12/10 04:39:18;;;;;;;38.63;20.05;;;;;;;;;;4989209;28;20038;-80
2022/12/10 04:41:46;;;;;;;39.50;20.65;;;;;;;;;;4992385;28;20041;-79
2022/12/10 04:44:11;;;;;;;37.50;20.60;;;;;;;;;;4990192;28;20054;-80
2022/12/10 04:46:37;;;;;;;34.38;20.30;;;;;;;;;;4992765;28;20034;-79
2022/12/10 04:49:04;;;;;;;38.30;21.65;;;;;;;;;;4992289;28;20113;-79
2022/12/10 04:51:30;;;;;;;33.40;19.83;;;;;;;;;;4988032;28;20437;-78
2022/12/10 04:53:57;;;;;;;33.95;19.65;;;;;;;;;;4987265;28;20030;-79
2022/12/10 04:56:22;;;;;;;42.25;21.08;;;;;;;;;;4992783;28;20110;-77
2022/12/10 04:58:48;;;;;;;35.78;21.38;;;;;;;;;;4992311;28;20042;-78
2022/12/10 05:01:14;;;;;;;38.15;20.58;;;;;;;;;;4988640;28;20034;-77
2022/12/10 05:03:40;;;;;;;42.63;21.40;;;;;;;;;;4989646;28;20073;-79
2022/12/10 05:06:09;;;;;;;36.83;20.45;;;;;;;;;;4991885;28;20109;-80
2022/12/10 05:08:36;;;;;;;35.33;20.40;;;;;;;;;;4989672;28;20042;-80
2022/12/10 05:11:07;;;;;;;34.17;19.17;;;;;;;;;;4971896;28;20062;-82
2022/12/10 05:13:34;;;;;;;36.70;19.92;;;;;;;;;;4988675;28;20061;-78
2022/12/10 05:16:06;;;;;;;36.70;20.02;;;;;;;;;;4990891;28;20117;-79
2022/12/10 05:18:32;;;;;;;38.30;21.50;;;;;;;;;;4991419;28;20036;-81
2022/12/10 05:20:59;;;;;;;39.10;22.40;;;;;;;;;;4990800;28;20045;-78
2022/12/10 05:23:27;;;;;;;38.75;19.80;;;;;;;;;;4991927;28;20038;-78
2022/12/10 05:26:00;;;;;;;45.00;23.13;;;;;;;;;;4987985;28;20449;-81
2022/12/10 05:28:27;;;;;;;46.17;23.80;;;;;;;;;;4988087;28;20041;-78
2022/12/10 05:30:52;;;;;;;36.38;21.02;;;;;;;;;;4988766;28;20034;-79
2022/12/10 05:33:18;;;;;;;41.30;22.73;;;;;;;;;;4986998;28;20039;-78
2022/12/10 05:36:01;;;;;;;44.08;23.15;;;;;;;;;;4990239;28;20034;-79
2022/12/10 05:38:28;;;;;;;46.13;22.83;;;;;;;;;;4987267;28;20046;-78
2022/12/10 05:40:54;;;;;;;39.83;22.23;;;;;;;;;;4994741;28;20038;-77
2022/12/10 05:43:20;;;;;;;38.85;22.25;;;;;;;;;;4994003;28;20065;-79
2022/12/10 05:45:46;;;;;;;44.67;22.75;;;;;;;;;;4991787;28;20716;-79
2022/12/10 05:48:14;;;;;;;39.03;20.45;;;;;;;;;;4991117;28;20058;-77
2022/12/10 05:50:40;;;;;;;39.85;22.10;;;;;;;;;;4992036;28;20088;-80
2022/12/10 05:53:06;;;;;;;40.72;21.45;;;;;;;;;;4988634;28;21491;-77
2022/12/10 05:55:32;;;;;;;35.47;21.70;;;;;;;;;;4991149;28;20485;-78
2022/12/10 05:57:59;;;;;;;27.60;19.02;;;;;;;;;;4986953;28;20137;-79
2022/12/10 06:00:27;;;;;;;34.15;20.63;;;;;;;;;;4991961;28;20614;-80
2022/12/10 06:02:54;;;;;;;36.70;19.90;;;;;;;;;;4990841;28;20038;-78
2022/12/10 06:05:19;;;;;;;35.28;20.98;;;;;;;;;;4988516;28;20096;-78
2022/12/10 06:07:45;;;;;;;33.05;18.92;;;;;;;;;;4985987;28;20038;-79
2022/12/10 06:10:11;;;;;;;38.13;20.80;;;;;;;;;;4990740;28;20681;-78
2022/12/10 06:12:38;;;;;;;35.25;20.42;;;;;;;;;;4989852;28;20650;-82
2022/12/10 06:15:04;;;;;;;38.08;21.08;;;;;;;;;;4980654;28;20042;-78
2022/12/10 06:17:30;;;;;;;39.00;20.77;;;;;;;;;;4988378;28;20034;-79
2022/12/10 06:19:56;;;;;;;35.38;20.25;;;;;;;;;;4990312;28;20036;-77
2022/12/10 06:22:21;;;;;;;36.75;21.08;;;;;;;;;;4991262;28;20603;-78
2022/12/10 06:24:47;;;;;;;35.10;18.92;;;;;;;;;;4984637;28;20038;-78
2022/12/10 06:27:12;;;;;;;40.85;22.88;;;;;;;;;;4989563;28;20050;-80
2022/12/10 06:29:38;;;;;;;40.45;20.85;;;;;;;;;;4987001;28;20035;-77
2022/12/10 06:32:04;;;;;;;39.92;23.35;;;;;;;;;;4989047;28;20405;-78
2022/12/10 06:34:29;;;;;;;41.75;21.77;;;;;;;;;;4984225;28;20586;-81
2022/12/10 06:36:55;;;;;;;38.88;21.20;;;;;;;;;;4989754;28;20065;-80
2022/12/10 06:39:20;;;;;;;42.92;22.63;;;;;;;;;;4988549;28;20042;-78
2022/12/10 06:41:46;;;;;;;42.03;23.08;;;;;;;;;;4987180;28;20041;-78
2022/12/10 06:44:12;;;;;;;46.30;24.83;;;;;;;;;;4987800;28;21347;-79
2022/12/10 06:46:40;;;;;;;45.22;25.35;;;;;;;;;;4987838;28;20042;-81
2022/12/10 06:49:06;;;;;;;46.50;23.95;;;;;;;;;;4988745;28;20509;-80
2022/12/10 06:51:32;;;;;;;40.13;23.25;;;;;;;;;;4989853;28;20031;-78
2022/12/10 06:53:58;;;;;;;40.08;21.63;;;;;;;;;;4986366;28;20092;-79
2022/12/10 06:56:24;;;;;;;34.90;20.30;;;;;;;;;;4986588;28;20560;-78
2022/12/10 06:58:52;;;;;;;43.70;23.90;;;;;;;;;;4990808;28;20049;-78
2022/12/10 07:01:20;;;;;;;29.17;19.25;;;;;;;;;;4990679;28;20037;-80
2022/12/10 07:03:50;;;;;;;37.95;22.60;;;;;;;;;;4989718;28;20493;-81
2022/12/10 07:06:16;;;;;;;35.58;21.10;;;;;;;;;;5004140;28;20134;-79
2022/12/10 07:08:42;;;;;;;45.28;22.55;;;;;;;;;;4989443;28;20425;-80
2022/12/10 07:11:10;;;;;;;30.50;18.95;;;;;;;;;;4988588;28;20046;-77
2022/12/10 07:13:36;;;;;;;45.60;24.20;;;;;;;;;;4987249;28;20102;-79
2022/12/10 07:16:02;;;;;;;41.90;22.48;;;;;;;;;;4989385;28;20098;-77
2022/12/10 07:18:28;;;;;;;39.95;21.50;;;;;;;;;;4991381;28;20027;-80
2022/12/10 07:20:54;;;;;;;39.50;22.92;;;;;;;;;;4989170;28;20034;-77
2022/12/10 07:23:20;;;;;;;45.53;23.33;;;;;;;;;;4971256;28;20085;-79
2022/12/10 07:25:46;;;;;;;37.58;20.73;;;;;;;;;;4991747;28;20306;-79
2022/12/10 07:28:11;;;;;;;35.83;20.40;;;;;;;;;;4990737;28;20037;-80
2022/12/10 07:30:37;;;;;;;43.45;25.13;;;;;;;;;;4988571;28;20042;-81
2022/12/10 07:33:02;;;;;;;35.25;19.00;;;;;;;;;;4988735;28;20026;-79
2022/12/10 07:35:28;;;;;;;38.75;22.20;;;;;;;;;;4987631;28;20039;-77
2022/12/10 07:37:53;;;;;;;36.20;21.48;;;;;;;;;;4989393;28;20069;-80
2022/12/10 07:40:19;;;;;;;37.60;20.55;;;;;;;;;;4990186;28;20390;-81
2022/12/10 07:42:45;;;;;;;35.63;21.90;;;;;;;;;;4990339;28;20064;-78
2022/12/10 07:45:11;;;;;;;41.22;21.48;;;;;;;;;;4986236;28;20066;-79
2022/12/10 07:47:39;;;;;;;44.10;23.83;;;;;;;;;;4984842;28;20454;-78
2022/12/10 07:50:05;;;;;;;42.20;22.10;;;;;;;;;;4989907;28;20042;-78
2022/12/10 07:52:31;;;;;;;35.45;20.95;;;;;;;;;;4990073;28;20285;-77
2022/12/10 07:54:57;;;;;;;36.63;21.50;;;;;;;;;;4988622;28;20044;-77
2022/12/10 07:57:22;;;;;;;41.53;23.77;;;;;;;;;;4988240;28;20125;-79
2022/12/10 07:59:48;;;;;;;38.38;20.73;;;;;;;;;;4990792;28;20039;-80
2022/12/10 08:02:13;;;;;;;36.10;21.23;;;;;;;;;;4988822;28;20034;-78
2022/12/10 08:04:39;;;;;;;36.28;20.80;;;;;;;;;;4986706;28;20034;-77
2022/12/10 08:07:05;;;;;;;41.38;22.58;;;;;;;;;;4990110;28;20035;-77
2022/12/10 08:09:31;;;;;;;42.58;24.08;;;;;;;;;;4990928;28;20030;-81
2022/12/10 08:11:56;;;;;;;38.80;21.65;;;;;;;;;;4986820;28;20129;-82
2022/12/10 08:14:22;;;;;;;35.38;20.95;;;;;;;;;;4985264;28;20490;-79
2022/12/10 08:16:48;;;;;;;38.60;22.73;;;;;;;;;;4989212;28;20045;-77
2022/12/10 08:19:13;;;;;;;38.95;21.52;;;;;;;;;;4986038;28;20194;-79
2022/12/10 08:21:39;;;;;;;28.27;18.33;;;;;;;;;;4982811;28;20069;-81
2022/12/10 08:24:04;;;;;;;35.67;19.25;;;;;;;;;;4990579;28;20069;-77
2022/12/10 08:26:32;;;;;;;39.88;20.45;;;;;;;;;;4985166;28;20031;-78
2022/12/10 08:28:58;;;;;;;35.55;19.98;;;;;;;;;;4987268;28;20042;-79
2022/12/10 08:31:25;;;;;;;31.00;17.98;;;;;;;;;;4986294;28;20057;-78
2022/12/10 08:33:52;;;;;;;32.25;18.35;;;;;;;;;;4987108;28;20491;-79
2022/12/10 08:36:18;;;;;;;29.75;19.02;;;;;;;;;;4975927;28;20505;-78
2022/12/10 08:38:44;;;;;;;34.92;19.88;;;;;;;;;;4990084;28;20053;-77
2022/12/10 08:41:20;;;;;;;36.25;21.70;;;;;;;;;;4991128;28;20034;-77
2022/12/10 08:43:48;;;;;;;43.38;23.02;;;;;;;;;;4991180;28;20074;-76
2022/12/10 08:46:14;;;;;;;33.13;18.85;;;;;;;;;;4989324;28;20041;-78
2022/12/10 08:48:41;;;;;;;31.95;19.83;;;;;;;;;;4991847;28;20039;-77
2022/12/10 08:51:07;;;;;;;36.40;19.73;;;;;;;;;;4993862;28;20100;-78
2022/12/10 08:53:34;;;;;;;39.40;21.75;;;;;;;;;;4991936;28;20092;-78
2022/12/10 08:56:00;;;;;;;32.33;19.85;;;;;;;;;;4991882;28;20054;-77
2022/12/10 08:58:25;;;;;;;34.20;21.05;;;;;;;;;;4989995;28;20042;-78
2022/12/10 09:00:52;;;;;;;29.65;17.23;;;;;;;;;;4994354;28;20066;-78
2022/12/10 09:03:18;;;;;;;33.60;20.92;;;;;;;;;;4990608;28;20117;-77
2022/12/10 09:05:44;;;;;;;32.15;20.13;;;;;;;;;;4989463;28;20046;-76
2022/12/10 09:08:09;;;;;;;34.22;21.08;;;;;;;;;;4992275;28;20042;-78
2022/12/10 09:10:37;;;;;;;33.13;19.33;;;;;;;;;;4989486;28;20046;-78
2022/12/10 09:13:02;;;;;;;30.90;18.40;;;;;;;;;;4989498;28;20038;-77
2022/12/10 09:15:28;;;;;;;39.78;20.40;;;;;;;;;;4992657;28;20054;-78
2022/12/10 09:17:54;;;;;;;33.28;20.27;;;;;;;;;;4993452;28;20100;-77
2022/12/10 09:20:20;;;;;;;36.42;19.98;;;;;;;;;;4992389;28;20317;-77
2022/12/10 09:22:45;;;;;;;30.88;17.98;;;;;;;;;;4996348;28;20575;-80
2022/12/10 09:25:14;;;;;;;33.13;20.58;;;;;;;;;;4993374;28;20109;-77
2022/12/10 09:27:41;;;;;;;30.27;18.05;;;;;;;;;;4991314;28;20520;-78
2022/12/10 09:30:08;;;;;;;31.55;18.42;;;;;;;;;;4994112;28;20052;-78
2022/12/10 09:32:33;;;;;;;27.58;17.25;;;;;;;;;;4993119;28;20045;-78
2022/12/10 09:34:59;;;;;;;23.73;16.00;;;;;;;;;;4995156;28;20035;-79
2022/12/10 09:37:24;;;;;;;27.95;16.88;;;;;;;;;;4993790;28;20124;-77
2022/12/10 09:39:50;;;;;;;27.75;17.20;;;;;;;;;;4995723;28;20088;-79
2022/12/10 09:42:48;;;;;;;24.98;16.38;;;;;;;;;;4994731;28;20073;-78
2022/12/10 09:45:58;;;;;;;26.58;15.13;;;;;;;;;;4958288;28;20060;-78
2022/12/10 09:48:46;;;;;;;29.42;18.98;;;;;;;;;;4963919;29;20051;-76
2022/12/10 09:51:27;;;;;;;29.30;17.35;;;;;;;;;;4970219;29;20348;-76
2022/12/10 09:53:58;;;;;;;33.17;19.58;;;;;;;;;;4971850;28;20023;-77
2022/12/10 09:56:34;;;;;;;26.17;15.93;;;;;;;;;;4952958;29;20074;-75
2022/12/10 09:59:04;;;;;;;31.15;18.40;;;;;;;;;;4973625;28;20027;-76
2022/12/10 10:01:33;;;;;;;24.40;16.42;;;;;;;;;;4972102;29;20035;-76
2022/12/10 10:03:58;;;;;;;28.30;17.75;;;;;;;;;;4972532;28;20165;-76
2022/12/10 10:06:27;;;;;;;27.60;17.30;;;;;;;;;;4973442;29;20051;-76
2022/12/10 10:08:57;;;;;;;28.27;17.20;;;;;;;;;;4973457;29;20070;-76
2022/12/10 10:11:27;;;;;;;30.17;18.50;;;;;;;;;;4970426;28;20115;-78
2022/12/10 10:13:55;;;;;;;30.77;19.27;;;;;;;;;;4950515;28;20047;-78
2022/12/10 10:16:40;;;;;;;39.88;20.70;;;;;;;;;;4952872;28;20047;-78
2022/12/10 10:19:13;;;;;;;36.78;23.70;;;;;;;;;;4950867;29;20039;-77
2022/12/10 10:21:48;;;;;;;36.67;23.27;;;;;;;;;;4959443;28;20070;-79
2022/12/10 10:24:17;;;;;;;40.47;22.45;;;;;;;;;;4980572;28;20045;-78
2022/12/10 10:26:45;;;;;;;31.73;19.45;;;;;;;;;;4988065;28;20034;-77
2022/12/10 10:29:15;;;;;;;40.53;21.30;;;;;;;;;;4990502;28;20103;-78
2022/12/10 10:31:42;;;;;;;40.10;21.80;;;;;;;;;;4987520;28;20038;-78
2022/12/10 10:34:22;;;;;;;34.67;20.23;;;;;;;;;;4992327;28;20121;-78
2022/12/10 10:36:56;;;;;;;35.15;21.25;;;;;;;;;;4993145;28;20049;-79
2022/12/10 10:39:31;;;;;;;36.13;21.60;;;;;;;;;;4988762;28;20114;-78
2022/12/10 10:41:59;;;;;;;33.13;19.33;;;;;;;;;;4991854;28;20042;-78
2022/12/10 10:44:28;;;;;;;28.42;18.67;;;;;;;;;;4993881;28;20046;-77
2022/12/10 10:46:54;;;;;;;39.92;22.55;;;;;;;;;;4994267;28;20058;-80
2022/12/10 10:49:31;;;;;;;29.20;18.85;;;;;;;;;;4990404;28;20049;-79
2022/12/10 10:52:16;;;;;;;33.03;20.15;;;;;;;;;;4993749;28;20041;-79
2022/12/10 10:54:44;;;;;;;37.55;22.40;;;;;;;;;;4995229;28;20042;-79
2022/12/10 10:57:16;;;;;;;31.80;18.83;;;;;;;;;;4994192;28;20038;-80
2022/12/10 10:59:42;;;;;;;29.92;18.35;;;;;;;;;;4995011;28;20034;-80
2022/12/10 11:02:32;;;;;;;32.15;19.60;;;;;;;;;;4994467;28;20058;-79
2022/12/10 11:05:06;;;;;;;34.60;20.38;;;;;;;;;;4993324;28;20107;-80
2022/12/10 11:07:36;;;;;;;33.53;20.38;;;;;;;;;;4988503;28;20050;-80
2022/12/10 11:10:02;;;;;;;;;;;;;;;;;;4992471;28;20157;-78
2022/12/10 11:12:34;;;;;;;32.65;17.10;;;;;;;;;;4994748;28;20000;-77
2022/12/10 11:15:00;;;;;;;29.42;17.00;;;;;;;;;;4991591;28;20026;-78
2022/12/10 11:17:27;;;;;;;30.60;18.77;;;;;;;;;;4991645;28;20040;-78
2022/12/10 11:20:15;;;;;;;33.08;21.02;;;;;;;;;;4994030;28;20044;-79
2022/12/10 11:22:49;;;;;;;28.65;16.95;;;;;;;;;;4991087;28;20134;-78
2022/12/10 11:25:15;;;;;;;31.88;18.10;;;;;;;;;;4989640;28;20057;-79
2022/12/10 11:28:08;;;;;;;32.67;18.85;;;;;;;;;;4991960;28;20038;-79
2022/12/10 11:30:45;;;;;;;27.17;16.98;;;;;;;;;;4991673;28;20053;-78
2022/12/10 11:33:36;;;;;;;22.70;16.13;;;;;;;;;;4994645;28;20038;-79
2022/12/10 11:36:20;;;;;;;35.38;21.52;;;;;;;;;;4988123;28;20093;-79
2022/12/10 11:39:02;;;;;;;30.70;19.23;;;;;;;;;;4990967;28;20061;-79
2022/12/10 11:41:49;;;;;;;31.13;19.70;;;;;;;;;;4994687;28;20032;-78
2022/12/10 11:44:43;;;;;;;32.38;18.60;;;;;;;;;;4994928;28;20049;-77
2022/12/10 11:47:11;;;;;;;22.80;14.63;;;;;;;;;;4990526;28;20097;-77
2022/12/10 11:49:53;;;;;;;27.85;17.80;;;;;;;;;;4993633;28;20046;-79
2022/12/10 11:52:45;;;;;;;24.42;15.43;;;;;;;;;;5000138;28;20034;-77
2022/12/10 11:55:23;;;;;;;27.50;15.60;;;;;;;;;;4978136;28;20038;-77
2022/12/10 11:58:32;;;;;;;26.52;17.52;;;;;;;;;;4990308;28;20094;-77
2022/12/10 12:01:06;;;;;;;26.50;17.40;;;;;;;;;;4992888;28;20054;-77
2022/12/10 12:03:55;;;;;;;24.90;16.60;;;;;;;;;;4996382;28;20045;-79
2022/12/10 12:06:56;;;;;;;32.00;21.88;;;;;;;;;;4994266;28;20405;-80
2022/12/10 12:09:34;;;;;;;34.70;21.23;;;;;;;;;;4969751;28;20043;-78
2022/12/10 12:11:59;;;;;;;30.50;18.65;;;;;;;;;;4979352;28;20035;-76
2022/12/10 12:14:44;;;;;;;30.88;19.08;;;;;;;;;;4984574;28;20031;-79
2022/12/10 12:17:32;;;;;;;33.95;19.85;;;;;;;;;;4985817;28;20118;-78
2022/12/10 12:20:03;;;;;;;31.98;19.05;;;;;;;;;;4979761;28;20062;-77
2022/12/10 12:22:35;;;;;;;24.02;15.18;;;;;;;;;;4993931;28;20101;-78
2022/12/10 12:25:41;;;;;;;23.60;15.50;;;;;;;;;;4993503;28;20764;-76
2022/12/10 12:28:26;;;;;;;23.45;15.75;;;;;;;;;;4999212;28;20050;-79
2022/12/10 12:31:04;;;;;;;27.77;17.92;;;;;;;;;;4994199;28;20641;-78
2022/12/10 12:33:46;;;;;;;29.17;18.57;;;;;;;;;;4990206;28;20102;-78
2022/12/10 12:36:24;;;;;;;28.17;17.75;;;;;;;;;;5009367;28;20296;-77
2022/12/10 12:39:02;;;;;;;29.85;20.27;;;;;;;;;;5013248;28;20034;-77
2022/12/10 12:41:34;;;;;;;29.98;20.23;;;;;;;;;;5008661;28;20098;-77
2022/12/10 12:44:11;;;;;;;26.83;17.73;;;;;;;;;;4992939;28;20040;-78
2022/12/10 12:46:45;;;;;;;26.45;16.95;;;;;;;;;;4997618;28;20532;-79
2022/12/10 12:49:32;;;;;;;27.55;16.77;;;;;;;;;;4995897;28;20038;-76
2022/12/10 12:52:29;;;;;;;28.85;17.15;;;;;;;;;;4992990;28;20094;-78
2022/12/10 12:55:00;;;;;;;24.80;17.02;;;;;;;;;;4998114;28;20057;-78
2022/12/10 12:57:48;;;;;;;25.80;16.15;;;;;;;;;;4994413;28;20043;-78
2022/12/10 13:00:18;;;;;;;20.27;13.35;;;;;;;;;;4988522;28;20445;-79
2022/12/10 13:03:18;;;;;;;28.83;17.75;;;;;;;;;;4994612;28;20030;-78
2022/12/10 13:05:45;;;;;;;33.75;17.15;;;;;;;;;;4994792;28;20038;-76
2022/12/10 13:08:19;;;;;;;26.48;16.90;;;;;;;;;;4996648;28;20161;-79
2022/12/10 13:11:07;;;;;;;25.23;16.52;;;;;;;;;;4995950;28;20038;-76
2022/12/10 13:13:37;;;;;;;22.67;15.55;;;;;;;;;;4995756;28;20501;-78
2022/12/10 13:16:41;;;;;;;26.58;16.83;;;;;;;;;;4995820;28;20045;-79
2022/12/10 13:19:36;;;;;;;29.83;18.48;;;;;;;;;;4996934;28;20096;-78
2022/12/10 13:22:12;;;;;;;32.10;16.55;;;;;;;;;;4976491;28;20054;-77
2022/12/10 13:25:09;;;;;;;28.00;16.45;;;;;;;;;;4978792;28;20046;-77
2022/12/10 13:27:35;;;;;;;;;;;;;;;;;;4976576;28;20050;-79
2022/12/10 13:30:07;;;;;;;22.67;15.00;;;;;;;;;;4977306;28;19920;-78
2022/12/10 13:32:32;;;;;;;22.40;15.60;;;;;;;;;;4975631;28;20130;-78
2022/12/10 13:35:16;;;;;;;24.63;15.13;;;;;;;;;;4981178;28;20340;-78
2022/12/10 13:38:14;;;;;;;24.20;16.23;;;;;;;;;;4974538;28;20150;-79
2022/12/10 13:46:29;;;;;;;27.73;17.77;;;;;;;;;;4977227;28;20074;-78
2022/12/10 13:49:00;;;;;;;18.38;14.40;;;;;;;;;;4976297;28;20035;-78
2022/12/10 13:51:54;;;;;;;21.67;14.13;;;;;;;;;;4975858;28;20082;-79
2022/12/10 13:54:47;;;;;;;26.40;16.33;;;;;;;;;;4974352;28;20443;-78
2022/12/10 13:57:46;;;;;;;23.67;14.52;;;;;;;;;;4975188;28;20046;-77
2022/12/10 14:00:20;;;;;;;24.80;17.15;;;;;;;;;;4992562;28;20165;-78
2022/12/10 14:03:23;;;;;;;26.08;17.67;;;;;;;;;;4991865;28;20045;-79
2022/12/10 14:06:13;;;;;;;24.52;14.73;;;;;;;;;;4995274;28;20034;-79
2022/12/10 14:08:40;;;;;;;25.48;14.90;;;;;;;;;;4987562;28;20051;-78
2022/12/10 14:11:18;;;;;;;27.67;15.90;;;;;;;;;;4993256;28;20494;-77
2022/12/10 14:13:49;;;;;;;19.45;13.65;;;;;;;;;;4991511;28;20538;-77
2022/12/10 14:16:18;;;;;;;23.38;15.43;;;;;;;;;;4993109;28;20195;-79
2022/12/10 14:18:51;;;;;;;27.57;17.37;;;;;;;;;;4989244;28;20049;-79
2022/12/10 14:21:18;;;;;;;22.05;15.70;;;;;;;;;;4991476;28;20297;-77
2022/12/10 14:23:46;;;;;;;27.95;18.70;;;;;;;;;;4992720;28;20042;-79
2022/12/10 14:26:18;;;;;;;25.07;16.60;;;;;;;;;;4993821;28;20121;-77
2022/12/10 14:29:03;;;;;;;27.23;17.38;;;;;;;;;;4992585;28;20351;-77
2022/12/10 14:31:39;;;;;;;25.85;16.40;;;;;;;;;;4991951;28;20043;-78
2022/12/10 14:34:08;;;;;;;33.22;21.67;;;;;;;;;;4991629;28;20025;-78
2022/12/10 14:36:39;;;;;;;31.23;18.38;;;;;;;;;;4993078;28;20035;-78
2022/12/10 14:39:14;;;;;;;29.45;18.10;;;;;;;;;;4993752;28;20034;-77
2022/12/10 14:41:40;;;;;;;22.98;15.40;;;;;;;;;;4991627;28;20037;-78
2022/12/10 14:44:06;;;;;;;29.20;18.38;;;;;;;;;;4990899;28;20034;-78
2022/12/10 14:46:32;;;;;;;40.30;24.58;;;;;;;;;;4993325;28;20030;-77
2022/12/10 14:48:58;;;;;;;32.83;19.08;;;;;;;;;;4990039;28;20073;-78
2022/12/10 14:51:26;;;;;;;33.03;20.83;;;;;;;;;;4989632;28;20124;-79
2022/12/10 14:53:54;;;;;;;36.88;21.42;;;;;;;;;;4988703;28;20110;-79
2022/12/10 14:56:32;;;;;;;32.40;20.95;;;;;;;;;;4974646;28;21063;-77